createdAt,value
2019-03-23T00:01:20.771Z,80.85
2019-03-23T00:03:54.930Z,83.58
2019-03-23T00:06:31.078Z,85.75
2019-03-23T00:09:06.232Z,85.87
2019-03-23T00:11:40.726Z,87.95
2019-03-23T00:14:16.237Z,78.87
2019-03-23T00:16:51.414Z,80.10
2019-03-23T00:19:26.470Z,76.40
2019-03-23T00:22:00.992Z,71.35
2019-03-23T00:24:35.901Z,76.90
2019-03-23T00:27:10.485Z,72.53
2019-03-23T00:29:45.457Z,77.42
2019-03-23T00:32:20.491Z,72.75
2019-03-23T00:34:55.419Z,65.45
2019-03-23T00:37:30.349Z,72.17
2019-03-23T00:40:05.080Z,67.45
2019-03-23T00:42:40.024Z,65.28
2019-03-23T00:45:14.849Z,65.37
2019-03-23T00:47:49.347Z,67.70
2019-03-23T00:50:24.333Z,62.78
2019-03-23T00:52:59.114Z,62.62
2019-03-23T00:55:33.782Z,63.83
2019-03-23T00:58:08.266Z,57.55
2019-03-23T01:00:43.094Z,55.08
2019-03-23T01:03:18.277Z,57.45
2019-03-23T01:05:53.369Z,50.55
2019-03-23T01:08:27.892Z,53.42
2019-03-23T01:11:02.947Z,58.45
2019-03-23T01:13:37.465Z,56.65
2019-03-23T01:16:12.426Z,59.90
2019-03-23T01:18:46.924Z,60.03
2019-03-23T01:21:21.437Z,58.08
2019-03-23T01:23:57.071Z,56.42
2019-03-23T01:26:31.814Z,56.45
2019-03-23T01:29:06.990Z,57.67
2019-03-23T01:31:41.716Z,60.17
2019-03-23T01:34:16.111Z,51.23
2019-03-23T01:36:50.519Z,57.95
2019-03-23T01:39:25.619Z,55.80
2019-03-23T01:42:00.596Z,55.88
2019-03-23T01:44:35.383Z,56.40
2019-03-23T01:47:09.840Z,49.48
2019-03-23T01:49:43.991Z,54.63
2019-03-23T01:52:18.492Z,50.00
2019-03-23T01:54:52.732Z,50.50
2019-03-23T01:57:27.228Z,49.83
2019-03-23T02:00:02.052Z,52.08
2019-03-23T02:02:36.612Z,51.85
2019-03-23T02:05:11.626Z,62.20
2019-03-23T02:07:46.886Z,60.08
2019-03-23T02:10:22.132Z,60.83
2019-03-23T02:12:57.037Z,57.98
2019-03-23T02:15:31.138Z,62.75
2019-03-23T02:18:05.808Z,65.95
2019-03-23T02:20:40.810Z,58.58
2019-03-23T02:23:15.647Z,61.08
2019-03-23T02:25:50.473Z,61.73
2019-03-23T02:28:24.101Z,62.25
2019-03-23T02:30:59.035Z,62.03
2019-03-23T02:33:34.141Z,63.60
2019-03-23T02:36:08.645Z,68.78
2019-03-23T02:38:43.606Z,66.57
2019-03-23T02:41:18.634Z,65.85
2019-03-23T02:43:53.226Z,65.37
2019-03-23T02:46:27.860Z,70.00
2019-03-23T02:49:02.816Z,67.03
2019-03-23T02:51:39.772Z,64.82
2019-03-23T02:54:14.406Z,66.55
2019-03-23T02:56:49.054Z,69.42
2019-03-23T02:59:24.813Z,74.40
2019-03-23T03:01:59.658Z,71.77
2019-03-23T03:04:35.393Z,73.30
2019-03-23T03:07:10.420Z,74.17
2019-03-23T03:09:45.578Z,75.20
2019-03-23T03:12:20.513Z,78.90
2019-03-23T03:14:55.424Z,80.17
2019-03-23T03:17:30.008Z,80.72
2019-03-23T03:20:05.151Z,80.50
2019-03-23T03:22:40.550Z,85.90
2019-03-23T03:25:15.775Z,81.20
2019-03-23T03:27:50.802Z,80.38
2019-03-23T03:30:25.815Z,86.05
2019-03-23T03:33:00.756Z,81.87
2019-03-23T03:35:35.492Z,76.60
2019-03-23T03:38:09.988Z,86.97
2019-03-23T03:40:45.209Z,78.05
2019-03-23T03:43:20.678Z,76.57
2019-03-23T03:45:55.742Z,82.57
2019-03-23T03:48:30.717Z,84.32
2019-03-23T03:51:06.231Z,78.15
2019-03-23T03:53:41.181Z,78.12
2019-03-23T03:56:16.194Z,75.32
2019-03-23T03:58:50.392Z,74.55
2019-03-23T04:01:26.110Z,72.90
2019-03-23T04:04:00.873Z,69.72
2019-03-23T04:06:35.932Z,68.02
2019-03-23T04:09:12.218Z,76.65
2019-03-23T04:11:47.322Z,70.40
2019-03-23T04:14:22.154Z,72.70
2019-03-23T04:16:56.988Z,68.12
2019-03-23T04:19:31.914Z,67.25
2019-03-23T04:22:06.628Z,68.12
2019-03-23T04:24:41.688Z,70.78
2019-03-23T04:27:16.212Z,65.08
2019-03-23T04:29:51.484Z,66.05
2019-03-23T04:32:25.760Z,68.90
2019-03-23T04:35:00.897Z,70.22
2019-03-23T04:37:35.557Z,71.37
2019-03-23T04:40:10.388Z,71.45
2019-03-23T04:42:44.713Z,64.97
2019-03-23T04:45:19.024Z,68.65
2019-03-23T04:47:53.511Z,73.02
2019-03-23T04:50:28.137Z,77.10
2019-03-23T04:53:02.898Z,75.95
2019-03-23T04:55:37.499Z,71.22
2019-03-23T04:58:12.434Z,74.35
2019-03-23T05:00:49.459Z,78.87
2019-03-23T05:03:24.469Z,80.57
2019-03-23T05:05:59.383Z,75.62
2019-03-23T05:08:34.188Z,82.00
2019-03-23T05:11:08.951Z,87.75
2019-03-23T05:13:43.299Z,84.72
2019-03-23T05:16:18.269Z,84.80
2019-03-23T05:18:54.663Z,88.25
2019-03-23T05:21:29.173Z,97.88
2019-03-23T05:24:03.904Z,86.00
2019-03-23T05:26:38.603Z,85.45
2019-03-23T05:29:12.520Z,85.47
2019-03-23T05:31:47.167Z,91.12
2019-03-23T05:34:22.029Z,94.92
2019-03-23T05:36:57.291Z,87.25
2019-03-23T05:39:32.200Z,92.25
2019-03-23T05:42:06.721Z,85.77
2019-03-23T05:44:41.846Z,81.90
2019-03-23T05:47:16.611Z,85.90
2019-03-23T05:49:50.928Z,80.83
2019-03-23T05:52:25.556Z,80.70
2019-03-23T05:55:00.553Z,71.90
2019-03-23T05:57:35.375Z,76.00
2019-03-23T06:00:09.160Z,74.03
2019-03-23T06:02:44.323Z,77.78
2019-03-23T06:05:20.207Z,83.47
2019-03-23T06:07:55.192Z,79.10
2019-03-23T06:10:30.445Z,74.80
2019-03-23T06:13:05.264Z,74.53
2019-03-23T06:15:39.609Z,81.53
2019-03-23T06:18:14.186Z,80.67
2019-03-23T06:20:48.942Z,85.75
2019-03-23T06:23:24.400Z,76.20
2019-03-23T06:25:59.190Z,76.77
2019-03-23T06:28:34.356Z,75.72
2019-03-23T06:31:09.036Z,71.60
2019-03-23T06:33:43.797Z,72.12
2019-03-23T06:36:18.619Z,69.37
2019-03-23T06:38:53.102Z,70.85
2019-03-23T06:41:27.608Z,68.20
2019-03-23T06:44:02.100Z,68.55
2019-03-23T06:46:36.909Z,62.48
2019-03-23T06:49:12.104Z,56.95
2019-03-23T06:51:46.353Z,60.25
2019-03-23T06:54:20.285Z,59.93
2019-03-23T06:56:54.990Z,59.00
2019-03-23T06:59:29.930Z,56.20
2019-03-23T07:02:03.646Z,60.58
2019-03-23T07:04:38.698Z,55.30
2019-03-23T07:07:13.872Z,54.08
2019-03-23T07:09:48.811Z,54.58
2019-03-23T07:12:23.502Z,59.95
2019-03-23T07:14:57.971Z,53.30
2019-03-23T07:17:32.478Z,54.58
2019-03-23T07:20:07.553Z,53.92
2019-03-23T07:22:41.851Z,56.08
2019-03-23T07:25:16.100Z,59.10
2019-03-23T07:27:49.948Z,60.78
2019-03-23T07:30:24.352Z,52.25
2019-03-23T07:32:59.053Z,57.78
2019-03-23T07:35:34.120Z,58.58
2019-03-23T07:38:08.620Z,58.87
2019-03-23T07:40:43.422Z,60.38
2019-03-23T07:43:17.916Z,59.18
2019-03-23T07:45:53.114Z,61.13
2019-03-23T07:48:28.609Z,58.55
2019-03-23T07:51:03.621Z,58.73
2019-03-23T07:53:38.415Z,53.20
2019-03-23T07:56:13.590Z,48.73
2019-03-23T07:58:48.561Z,54.42
2019-03-23T08:01:23.407Z,48.98
2019-03-23T08:03:57.911Z,46.30
2019-03-23T08:06:32.426Z,47.85
2019-03-23T08:09:08.304Z,46.20
2019-03-23T08:11:43.628Z,50.28
2019-03-23T08:14:18.347Z,47.95
2019-03-23T08:16:54.411Z,50.12
2019-03-23T08:19:29.194Z,48.15
2019-03-23T08:22:04.262Z,50.10
2019-03-23T08:24:38.191Z,49.20
2019-03-23T08:27:13.166Z,49.20
2019-03-23T08:29:47.817Z,47.45
2019-03-23T08:32:22.861Z,49.88
2019-03-23T08:34:58.155Z,45.67
2019-03-23T08:37:32.972Z,45.33
2019-03-23T08:40:07.782Z,45.58
2019-03-23T08:42:41.924Z,47.48
2019-03-23T08:45:16.101Z,47.85
2019-03-23T08:47:50.627Z,48.85
2019-03-23T08:50:25.765Z,45.98
2019-03-23T08:53:00.583Z,50.05
2019-03-23T08:55:35.579Z,45.98
2019-03-23T08:58:10.560Z,53.70
2019-03-23T09:00:46.141Z,49.40
2019-03-23T09:03:20.607Z,49.50
2019-03-23T09:05:55.218Z,45.65
2019-03-23T09:08:30.620Z,48.17
2019-03-23T09:11:04.619Z,51.73
2019-03-23T09:13:40.838Z,53.60
2019-03-23T09:16:15.154Z,51.25
2019-03-23T09:18:50.762Z,49.58
2019-03-23T09:21:25.869Z,41.23
2019-03-23T09:24:00.908Z,44.27
2019-03-23T09:26:35.500Z,42.73
2019-03-23T09:29:12.802Z,44.75
2019-03-23T09:31:47.324Z,46.98
2019-03-23T09:34:21.943Z,45.52
2019-03-23T09:36:56.648Z,46.65
2019-03-23T09:39:31.102Z,43.90
2019-03-23T09:42:07.113Z,44.33
2019-03-23T09:44:44.697Z,38.58
2019-03-23T09:47:19.156Z,39.33
2019-03-23T09:49:52.742Z,45.63
2019-03-23T09:52:27.142Z,42.88
2019-03-23T09:55:00.341Z,43.58
2019-03-23T09:57:34.525Z,44.00
2019-03-23T10:00:07.983Z,42.53
2019-03-23T10:02:41.509Z,44.60
2019-03-23T10:05:15.057Z,48.65
2019-03-23T10:07:49.728Z,45.95
2019-03-23T10:10:24.764Z,41.50
2019-03-23T10:12:59.739Z,47.65
2019-03-23T10:15:34.736Z,46.28
2019-03-23T10:18:09.382Z,50.33
2019-03-23T10:20:43.478Z,53.42
2019-03-23T10:23:18.513Z,53.25
2019-03-23T10:25:53.135Z,55.58
2019-03-23T10:28:27.579Z,53.20
2019-03-23T10:31:02.604Z,50.15
2019-03-23T10:33:37.137Z,54.05
2019-03-23T10:36:12.374Z,49.65
2019-03-23T10:38:47.385Z,50.83
2019-03-23T10:41:22.341Z,51.83
2019-03-23T10:43:56.843Z,58.45
2019-03-23T10:46:31.977Z,61.85
2019-03-23T10:49:06.588Z,57.17
2019-03-23T10:51:41.138Z,52.10
2019-03-23T10:54:15.939Z,45.50
2019-03-23T10:56:50.900Z,47.15
2019-03-23T10:59:27.940Z,48.60
2019-03-23T11:02:01.256Z,50.95
2019-03-23T11:04:35.997Z,42.85
2019-03-23T11:07:12.831Z,41.73
2019-03-23T11:09:47.354Z,41.08
2019-03-23T11:12:22.434Z,43.00
2019-03-23T11:14:56.957Z,42.10
2019-03-23T11:17:31.790Z,39.78
2019-03-23T11:20:06.649Z,39.67
2019-03-23T11:22:40.840Z,39.40
2019-03-23T11:25:15.955Z,32.73
2019-03-23T11:27:50.919Z,36.35
2019-03-23T11:30:25.762Z,34.78
2019-03-23T11:33:00.901Z,40.45
2019-03-23T11:35:35.683Z,40.30
2019-03-23T11:38:11.133Z,38.80
2019-03-23T11:40:53.849Z,40.55
2019-03-23T11:43:22.478Z,39.42
2019-03-23T11:45:57.090Z,34.40
2019-03-23T11:48:31.235Z,35.55
2019-03-23T11:51:06.202Z,35.50
2019-03-23T11:53:41.170Z,36.00
2019-03-23T11:56:16.806Z,34.20
2019-03-23T11:58:53.903Z,35.03
2019-03-23T12:01:28.189Z,35.40
2019-03-23T12:04:05.247Z,38.05
2019-03-23T12:06:40.425Z,37.58
2019-03-23T12:09:14.846Z,35.15
2019-03-23T12:11:51.811Z,34.88
2019-03-23T12:14:25.961Z,33.45
2019-03-23T12:17:00.883Z,32.88
2019-03-23T12:19:35.459Z,31.23
2019-03-23T12:22:09.522Z,30.95
2019-03-23T12:24:44.571Z,33.08
2019-03-23T12:27:19.613Z,30.88
2019-03-23T12:29:54.540Z,29.70
2019-03-23T12:32:29.363Z,31.02
2019-03-23T12:35:03.872Z,27.05
2019-03-23T12:37:39.012Z,30.40
2019-03-23T12:40:12.716Z,33.02
2019-03-23T12:42:47.847Z,33.73
2019-03-23T12:45:22.312Z,28.73
2019-03-23T12:47:57.391Z,29.65
2019-03-23T12:50:31.709Z,28.55
2019-03-23T12:53:06.891Z,29.90
2019-03-23T12:55:41.581Z,26.60
2019-03-23T12:58:18.105Z,24.60
2019-03-23T13:00:52.694Z,24.43
2019-03-23T13:03:27.628Z,26.15
2019-03-23T13:06:02.997Z,27.50
2019-03-23T13:08:36.668Z,26.17
2019-03-23T13:11:09.841Z,24.60
2019-03-23T13:13:43.646Z,23.65
2019-03-23T13:16:16.429Z,22.30
2019-03-23T13:18:56.440Z,22.15
2019-03-23T13:21:32.665Z,25.37
2019-03-23T13:24:08.341Z,24.50
2019-03-23T13:26:42.870Z,23.00
2019-03-23T13:29:17.073Z,22.70
2019-03-23T13:31:51.872Z,25.48
2019-03-23T13:34:28.796Z,23.77
2019-03-23T13:37:02.041Z,26.55
2019-03-23T13:39:35.179Z,24.85
2019-03-23T13:42:09.888Z,25.17
2019-03-23T13:44:43.653Z,24.80
2019-03-23T13:47:18.531Z,22.62
2019-03-23T13:49:52.809Z,24.10
2019-03-23T13:52:30.010Z,25.45
2019-03-23T13:55:03.705Z,24.60
2019-03-23T13:57:37.526Z,22.42
2019-03-23T14:00:12.812Z,23.62
2019-03-23T14:02:47.405Z,27.70
2019-03-23T14:05:38.952Z,21.70
2019-03-23T14:08:12.261Z,22.50
2019-03-23T14:10:47.722Z,25.27
2019-03-23T14:13:22.029Z,23.15
2019-03-23T14:15:56.885Z,20.55
2019-03-23T14:18:31.639Z,19.85
2019-03-23T14:21:06.621Z,20.00
2019-03-23T14:23:41.137Z,21.35
2019-03-23T14:26:16.274Z,19.02
2019-03-23T14:28:51.211Z,18.70
2019-03-23T14:31:26.738Z,21.42
2019-03-23T14:34:01.339Z,20.43
2019-03-23T14:36:36.047Z,18.80
2019-03-23T14:39:10.737Z,17.07
2019-03-23T14:41:45.207Z,20.15
2019-03-23T14:44:20.397Z,19.27
2019-03-23T14:46:55.325Z,21.45
2019-03-23T14:49:29.529Z,19.37
2019-03-23T14:52:03.210Z,18.85
2019-03-23T14:54:37.358Z,18.85
2019-03-23T14:57:12.295Z,18.00
2019-03-23T14:59:47.326Z,17.85
2019-03-23T15:02:22.238Z,15.50
2019-03-23T15:04:57.175Z,15.55
2019-03-23T15:07:31.407Z,15.08
2019-03-23T15:10:05.835Z,17.37
2019-03-23T15:12:40.769Z,17.55
2019-03-23T15:15:15.299Z,17.15
2019-03-23T15:17:49.495Z,16.00
2019-03-23T15:20:24.055Z,19.85
2019-03-23T15:22:59.159Z,20.43
2019-03-23T15:25:34.914Z,19.32
2019-03-23T15:28:09.573Z,19.07
2019-03-23T15:30:44.577Z,16.07
2019-03-23T15:33:19.637Z,17.48
2019-03-23T15:35:54.195Z,18.23
2019-03-23T15:38:29.359Z,19.73
2019-03-23T15:41:03.731Z,21.35
2019-03-23T15:43:38.616Z,19.32
2019-03-23T15:46:12.383Z,22.13
2019-03-23T15:48:45.254Z,20.32
2019-03-23T15:51:18.825Z,23.38
2019-03-23T15:53:52.043Z,25.10
2019-03-23T15:56:24.924Z,27.77
2019-03-23T15:58:58.936Z,27.30
2019-03-23T16:01:32.686Z,26.80
2019-03-23T16:04:06.066Z,26.73
2019-03-23T16:06:40.102Z,25.88
2019-03-23T16:09:14.013Z,25.32
2019-03-23T16:11:48.004Z,28.02
2019-03-23T16:14:22.307Z,28.50
2019-03-23T16:16:55.241Z,26.48
2019-03-23T16:19:29.945Z,29.60
2019-03-23T16:22:03.244Z,28.52
2019-03-23T16:24:36.578Z,34.92
2019-03-23T16:27:09.828Z,38.45
2019-03-23T16:29:44.770Z,41.85
2019-03-23T16:32:19.601Z,39.70
2019-03-23T16:34:54.574Z,34.60
2019-03-23T16:37:28.252Z,54.58
2019-03-23T16:40:02.512Z,38.15
2019-03-23T16:42:44.669Z,42.35
2019-03-23T16:45:13.674Z,45.15
2019-03-23T16:47:48.610Z,52.45
2019-03-23T16:50:23.645Z,53.55
2019-03-23T16:52:58.250Z,55.43
2019-03-23T16:55:33.405Z,57.20
2019-03-23T16:58:15.976Z,58.50
2019-03-23T17:00:45.232Z,60.35
2019-03-23T17:03:20.252Z,64.12
2019-03-23T17:05:55.285Z,67.08
2019-03-23T17:08:30.426Z,65.75
2019-03-23T17:11:05.026Z,62.85
2019-03-23T17:13:39.582Z,60.17
2019-03-23T17:16:14.588Z,47.40
2019-03-23T17:18:49.463Z,43.40
2019-03-23T17:21:23.949Z,52.00
2019-03-23T17:23:58.991Z,52.73
2019-03-23T17:26:33.828Z,72.62
2019-03-23T17:29:08.013Z,63.10
2019-03-23T17:31:42.666Z,79.42
2019-03-23T17:34:16.764Z,105.52
2019-03-23T17:36:52.123Z,89.15
2019-03-23T17:39:27.060Z,111.88
2019-03-23T17:42:03.212Z,121.60
2019-03-23T17:44:38.279Z,180.48
2019-03-23T17:47:13.498Z,189.00
2019-03-23T17:49:48.527Z,200.05
2019-03-23T17:52:22.229Z,238.70
2019-03-23T17:54:56.863Z,241.10
2019-03-23T17:57:31.897Z,217.28
2019-03-23T18:00:06.896Z,219.32
2019-03-23T18:02:41.204Z,214.72
2019-03-23T18:05:15.753Z,220.20
2019-03-23T18:07:50.959Z,239.93
2019-03-23T18:10:28.114Z,245.73
2019-03-23T18:13:02.395Z,260.30
2019-03-23T18:15:37.667Z,260.75
2019-03-23T18:18:12.467Z,250.68
2019-03-23T18:20:47.633Z,236.18
2019-03-23T18:23:22.553Z,258.47
2019-03-23T18:25:57.501Z,248.18
2019-03-23T18:28:32.313Z,230.25
2019-03-23T18:31:07.279Z,181.67
2019-03-23T18:33:42.083Z,164.05
2019-03-23T18:36:17.242Z,183.78
2019-03-23T18:38:52.754Z,231.93
2019-03-23T18:41:27.310Z,213.03
2019-03-23T18:44:02.439Z,189.10
2019-03-23T18:46:39.205Z,188.42
2019-03-23T18:49:14.383Z,203.88
2019-03-23T18:51:52.117Z,211.07
2019-03-23T18:54:27.074Z,205.37
2019-03-23T18:57:02.220Z,233.57
2019-03-23T18:59:37.158Z,254.38
2019-03-23T19:02:11.155Z,254.30
2019-03-23T19:04:43.924Z,238.85
2019-03-23T19:07:17.545Z,211.25
2019-03-23T19:09:55.563Z,201.95
2019-03-23T19:12:29.701Z,198.72
2019-03-23T19:15:03.125Z,223.57
2019-03-23T19:17:38.946Z,243.15
2019-03-23T19:20:14.348Z,252.40
2019-03-23T19:22:49.321Z,273.95
2019-03-23T19:25:24.853Z,256.82
2019-03-23T19:27:59.033Z,280.60
2019-03-23T19:30:33.820Z,268.57
2019-03-23T19:33:06.741Z,264.68
2019-03-23T19:35:43.021Z,278.65
2019-03-23T19:38:18.272Z,285.48
2019-03-23T19:40:52.997Z,400.53
2019-03-23T19:43:27.670Z,426.30
2019-03-23T19:46:03.138Z,519.00
2019-03-23T19:48:37.265Z,507.62
2019-03-23T19:51:10.992Z,548.17
2019-03-23T19:53:44.390Z,522.90
2019-03-23T19:56:17.971Z,518.97
2019-03-23T19:58:53.922Z,522.33
2019-03-23T20:01:28.538Z,493.43
2019-03-23T20:04:02.804Z,484.70
2019-03-23T20:06:35.551Z,495.38
2019-03-23T20:09:10.535Z,446.20
2019-03-23T20:11:44.646Z,426.60
2019-03-23T20:14:17.538Z,432.98
2019-03-23T20:16:50.321Z,424.38
2019-03-23T20:19:23.888Z,435.75
2019-03-23T20:21:58.034Z,419.50
2019-03-23T20:24:31.875Z,461.85
2019-03-23T20:27:05.949Z,416.12
2019-03-23T20:29:40.119Z,416.62
2019-03-23T20:32:14.581Z,424.32
2019-03-23T20:34:50.707Z,423.00
2019-03-23T20:37:25.856Z,428.82
2019-03-23T20:40:00.461Z,428.80
2019-03-23T20:42:36.592Z,413.10
2019-03-23T20:45:11.109Z,336.10
2019-03-23T20:47:46.682Z,261.92
2019-03-23T20:50:20.379Z,215.05
2019-03-23T20:52:55.632Z,202.72
2019-03-23T20:55:31.324Z,201.15
2019-03-23T20:58:05.333Z,160.88
2019-03-23T21:00:47.420Z,160.00
2019-03-23T21:03:22.902Z,182.20
2019-03-23T21:05:56.237Z,178.82
2019-03-23T21:08:29.382Z,164.77
2019-03-23T21:11:02.647Z,173.60
2019-03-23T21:13:38.014Z,148.75
2019-03-23T21:16:11.428Z,133.72
2019-03-23T21:18:44.188Z,118.95
2019-03-23T21:21:17.800Z,110.03
2019-03-23T21:23:52.599Z,99.10
2019-03-23T21:26:25.843Z,99.00
2019-03-23T21:28:59.527Z,103.07
2019-03-23T21:31:33.045Z,100.85
2019-03-23T21:34:07.077Z,97.65
2019-03-23T21:36:41.107Z,100.40
2019-03-23T21:39:14.761Z,107.32
2019-03-23T21:41:48.970Z,94.52
2019-03-23T21:44:31.010Z,100.50
2019-03-23T21:46:58.834Z,98.60
2019-03-23T21:49:32.854Z,106.40
2019-03-23T21:52:06.598Z,99.03
2019-03-23T21:54:40.103Z,100.62
2019-03-23T21:57:15.169Z,104.27
2019-03-23T21:59:49.544Z,106.32
2019-03-23T22:02:23.955Z,103.87
2019-03-23T22:04:56.730Z,102.65
2019-03-23T22:07:30.292Z,101.12
2019-03-23T22:10:04.379Z,99.17
2019-03-23T22:12:37.601Z,107.03
2019-03-23T22:15:13.147Z,107.05
2019-03-23T22:17:46.960Z,99.90
2019-03-23T22:20:20.553Z,104.35
2019-03-23T22:22:53.999Z,103.30
2019-03-23T22:25:27.109Z,109.60
2019-03-23T22:28:01.174Z,106.78
2019-03-23T22:30:33.951Z,111.62
2019-03-23T22:33:07.478Z,107.90
2019-03-23T22:35:41.670Z,100.70
2019-03-23T22:38:16.568Z,105.55
2019-03-23T22:40:51.258Z,108.32
2019-03-23T22:43:25.844Z,101.67
2019-03-23T22:46:00.659Z,117.95
2019-03-23T22:48:35.466Z,101.90
2019-03-23T22:51:10.979Z,105.10
2019-03-23T22:53:45.859Z,101.07
2019-03-23T22:56:20.793Z,106.03
2019-03-23T22:58:55.494Z,104.15
2019-03-23T23:01:30.006Z,97.70
2019-03-23T23:04:04.668Z,105.58
2019-03-23T23:06:38.969Z,97.33
2019-03-23T23:09:13.936Z,100.05
2019-03-23T23:11:48.486Z,90.70
2019-03-23T23:14:23.583Z,84.72
2019-03-23T23:16:58.492Z,72.47
2019-03-23T23:19:33.199Z,69.60
2019-03-23T23:22:07.689Z,66.07
2019-03-23T23:24:42.294Z,62.27
2019-03-23T23:27:17.424Z,62.30
2019-03-23T23:29:51.979Z,58.95
2019-03-23T23:32:26.276Z,55.95
2019-03-23T23:35:01.392Z,54.20
2019-03-23T23:37:36.467Z,58.75
2019-03-23T23:40:10.967Z,59.70
2019-03-23T23:42:45.958Z,56.85
2019-03-23T23:45:20.200Z,62.45
2019-03-23T23:47:55.255Z,57.17
2019-03-23T23:50:30.161Z,64.25
2019-03-23T23:53:05.120Z,71.65
2019-03-23T23:55:39.780Z,75.95
2019-03-23T23:58:14.787Z,84.70
